Bettina K — PBEW — position and weather

sailwx.info

Track history (hours):
 
Tides and Currents Weather Stations Pressure Air Temp Water Temp Dewpoint Dewpoint Depression Visibility Wind Speed Wind Dir Waves Ship Positions

Bettina K

Last reported at 2018-Jan-21 10:16 UTC. Time now 2018-Jan-21 16:54 UTC.
Position N 55°18' E 010°48'.

Length 82 m; draft 5 m.

Type: Cargo ship. MMSI: 244730469.

Date/timePositionNaut miles runAvg speedWind from/ knotsBaromVisibWave heightAir tempDewpointWater temp
2018-Jan-21 10:16N 55°18' E 010°48'0 0.0
2018-Jan-21 09:58N 55°18' E 010°48'7 5.3
2018-Jan-21 08:34N 55°14' E 010°60'1 9.7
2018-Jan-21 08:30N 55°14' E 011°00'5 9.5
2018-Jan-21 08:00N 55°09' E 011°04'5 9.7
2018-Jan-21 07:30N 55°05' E 011°03'5 9.5
2018-Jan-21 07:00N 54°60' E 011°02'5 9.2
2018-Jan-21 06:30N 54°56' E 010°57'5 9.2
2018-Jan-21 06:00N 54°52' E 010°53'5 9.4
2018-Jan-21 05:30N 54°48' E 010°53'5 9.3
2018-Jan-21 05:00N 54°43' E 010°53'4 8.1
2018-Jan-21 04:30N 54°40' E 010°49'5 9.1
2018-Jan-21 04:00N 54°37' E 010°43'5 9.1
2018-Jan-21 03:30N 54°34' E 010°37'31 6.0
2018-Jan-20 22:17N 54°22' E 009°48'3 8.3
2018-Jan-20 21:59N 54°20' E 009°44'4 7.4
2018-Jan-20 21:30N 54°18' E 009°40'4 7.4
2018-Jan-20 21:00N 54°14' E 009°37'4 8.1
2018-Jan-20 20:30N 54°12' E 009°32'4 8.7
2018-Jan-20 20:00N 54°10' E 009°25'2 4.7
2018-Jan-20 19:30N 54°09' E 009°21'3 6.7
2018-Jan-20 19:00N 54°06' E 009°20'4 7.9
2018-Jan-20 18:30N 54°02' E 009°18'4 7.5
2018-Jan-20 18:00N 53°58' E 009°16'4 8.3
2018-Jan-20 17:30N 53°55' E 009°11'2 4.5
2018-Jan-20 17:00N 53°54' E 009°09'0 0.1
2018-Jan-20 16:30N 53°54' E 009°09'1 3.0
2018-Jan-20 16:01N 53°53' E 009°06'1 1.6
2018-Jan-20 15:30N 53°53' E 009°05'1 2.9
2018-Jan-20 15:00N 53°52' E 009°03'510.6
2018-Jan-20 14:30N 53°50' E 008°54'510.9
2018-Jan-20 14:00N 53°51' E 008°45'611.4
2018-Jan-20 13:30N 53°56' E 008°39'610.9
2018-Jan-20 13:00N 53°58' E 008°31'611.5
2018-Jan-20 12:30N 53°59' E 008°21'510.6
2018-Jan-20 12:00N 53°60' E 008°12'510.3
2018-Jan-20 11:30N 53°59' E 008°04'611.1
2018-Jan-20 10:59N 53°57' E 007°54'93 9.6
2018-Jan-20 01:18N 53°33' E 005°23'3 8.9
2018-Jan-20 00:59N 53°32' E 005°18'4 9.3
2018-Jan-20 00:30N 53°31' E 005°11'5 9.5
2018-Jan-20 00:00N 53°29' E 005°04'5 9.5
2018-Jan-19 23:30N 53°27' E 004°57'5 9.6
2018-Jan-19 23:00N 53°25' E 004°49'18 9.1
2018-Jan-19 21:00N 53°10' E 004°32'5 9.4
2018-Jan-19 20:30N 53°06' E 004°28'5 9.2
2018-Jan-19 19:58N 53°02' E 004°24'29 9.7
2018-Jan-19 17:00N 52°37' E 003°60'610.2
2018-Jan-19 16:24N 52°31' E 003°55'410.3
2018-Jan-19 15:59N 52°28' E 003°52'1110.6
2018-Jan-19 14:55N 52°20' E 003°39'22 9.0
2018-Jan-19 12:28N 52°00' E 003°24'4 8.0
2018-Jan-19 12:00N 51°56' E 003°22'4 7.8
2018-Jan-19 11:29N 51°53' E 003°21'4 7.8
2018-Jan-19 10:59N 51°49' E 003°18'18 7.3
2018-Jan-19 08:27N 51°31' E 003°26'4 9.4
2018-Jan-19 07:59N 51°28' E 003°31'4 7.8
2018-Jan-19 07:29N 51°26' E 003°36'5 9.4
2018-Jan-19 07:00N 51°24' E 003°43'612.1
2018-Jan-19 06:30N 51°21' E 003°51'612.0
2018-Jan-19 06:00N 51°25' E 003°58'4 8.9
2018-Jan-19 05:30N 51°24' E 004°05'4 8.2
2018-Jan-19 04:59N 51°24' E 004°11'4 9.2
2018-Jan-19 04:30N 51°21' E 004°16'4 8.2
2018-Jan-19 04:00N 51°17' E 004°19'1 1.1
2018-Jan-19 03:30N 51°17' E 004°20'0 0.0
2018-Jan-19 02:58N 51°17' E 004°20'1 1.6
2018-Jan-19 02:30N 51°17' E 004°21'1 1.1
2018-Jan-19 01:51N 51°17' E 004°22'0 0.0
2018-Jan-19 01:30N 51°17' E 004°22'0 0.0
2018-Jan-19 01:00N 51°17' E 004°22'0 0.0
2018-Jan-19 00:27N 51°17' E 004°22'0 0.0
2018-Jan-19 00:00N 51°17' E 004°22'0 0.0
2018-Jan-18 23:27N 51°17' E 004°22'0 0.0
2018-Jan-18 23:00N 51°17' E 004°22'0 0.0
2018-Jan-18 22:30N 51°17' E 004°22'0 0.0
2018-Jan-18 22:00N 51°17' E 004°22'0 0.0
2018-Jan-18 21:30N 51°17' E 004°22'0 0.0
2018-Jan-18 21:00N 51°17' E 004°22'0 0.0
2018-Jan-18 20:27N 51°17' E 004°22'0 0.0
2018-Jan-18 20:00N 51°17' E 004°22'0 0.0
2018-Jan-18 19:30N 51°17' E 004°22'0 0.0
2018-Jan-18 19:00N 51°17' E 004°22'0 0.0
2018-Jan-18 18:27N 51°17' E 004°22'0 0.0
2018-Jan-18 18:00N 51°17' E 004°22'0 0.0
2018-Jan-18 17:30N 51°17' E 004°22'0 0.0
2018-Jan-18 17:00N 51°17' E 004°22'0 0.0
2018-Jan-18 16:30N 51°17' E 004°22'0 0.0
2018-Jan-18 16:00N 51°17' E 004°22'0 0.0
2018-Jan-18 15:30N 51°17' E 004°22'0 0.0
2018-Jan-18 15:00N 51°17' E 004°22'0 0.0
2018-Jan-18 14:27N 51°17' E 004°22'0 0.0
2018-Jan-18 13:57N 51°17' E 004°22'0 0.0
2018-Jan-18 13:27N 51°17' E 004°22'0 0.0
2018-Jan-18 13:00N 51°17' E 004°22'0 0.0
2018-Jan-18 12:30N 51°17' E 004°22'0 0.0
2018-Jan-18 12:00N 51°17' E 004°22'0 0.0
2018-Jan-18 11:27N 51°17' E 004°22'0 0.0
2018-Jan-18 11:00N 51°17' E 004°22'0 0.0
2018-Jan-18 10:24N 51°17' E 004°22'0 0.0
2018-Jan-18 10:00N 51°17' E 004°22'0 0.0
2018-Jan-18 09:30N 51°17' E 004°22'0 0.0
2018-Jan-18 09:00N 51°17' E 004°22'0 0.0
2018-Jan-18 08:30N 51°17' E 004°22'0 0.0
2018-Jan-18 08:00N 51°17' E 004°22'0 0.0
2018-Jan-18 07:30N 51°17' E 004°22'0 0.0
2018-Jan-18 07:00N 51°17' E 004°22'0 0.0
2018-Jan-18 06:30N 51°17' E 004°22'0 0.0
2018-Jan-18 06:00N 51°17' E 004°22'0 0.0
2018-Jan-18 05:30N 51°17' E 004°22'0 0.0
2018-Jan-18 05:00N 51°17' E 004°22'0 0.0
2018-Jan-18 04:30N 51°17' E 004°22'0 0.0
2018-Jan-18 04:00N 51°17' E 004°22'0 0.0
2018-Jan-18 03:30N 51°17' E 004°22'0 0.0
2018-Jan-18 03:00N 51°17' E 004°22'0 0.0
2018-Jan-18 02:27N 51°17' E 004°22'0 0.0
2018-Jan-18 02:00N 51°17' E 004°22'0 0.0
2018-Jan-18 01:30N 51°17' E 004°22'0 0.0
2018-Jan-18 00:57N 51°17' E 004°22'0 0.0
2018-Jan-18 00:00N 51°17' E 004°22'0 0.0
2018-Jan-17 23:57N 51°17' E 004°22'  
2018-Jan-12 08:35N 57°33' E 009°36'1 9.7
2018-Jan-12 08:27N 57°34' E 009°38'5 9.4
2018-Jan-12 07:54N 57°36' E 009°46'5 9.3
2018-Jan-12 07:24N 57°38' E 009°54'4 9.2
2018-Jan-12 06:59N 57°40' E 010°01'4 9.2
2018-Jan-12 06:30N 57°41' E 010°08'5 9.5
2018-Jan-12 06:00N 57°43' E 010°16'5 9.8
2018-Jan-12 05:30N 57°45' E 010°25'510.3
2018-Jan-12 04:59N 57°47' E 010°34'510.1
2018-Jan-12 04:30N 57°49' E 010°43'5 9.9
2018-Jan-12 04:00N 57°47' E 010°51'510.1
2018-Jan-12 03:30N 57°45' E 010°60'5 9.7
2018-Jan-12 03:00N 57°43' E 011°08'510.0
2018-Jan-12 02:30N 57°41' E 011°17'510.2
2018-Jan-12 02:00N 57°39' E 011°26'510.1
2018-Jan-12 01:30N 57°37' E 011°34'4 8.3
2018-Jan-12 01:00N 57°38' E 011°42'4 8.7
2018-Jan-12 00:30N 57°41' E 011°49'4 7.7
2018-Jan-12 00:00N 57°42' E 011°55'3 5.9
2018-Jan-11 23:30N 57°44' E 011°60'2 3.1
2018-Jan-11 23:00N 57°45' E 011°60'3 6.0
2018-Jan-11 22:30N 57°48' E 012°01'4 7.0
2018-Jan-11 22:00N 57°52' E 012°01'5 9.6
2018-Jan-11 21:30N 57°56' E 012°04'4 8.1
2018-Jan-11 21:00N 58°00' E 012°08'510.1
2018-Jan-11 20:29N 58°05' E 012°09'3 6.4
2018-Jan-11 20:00N 58°08' E 012°07'1 1.9
2018-Jan-11 19:30N 58°09' E 012°08'4 9.0
2018-Jan-11 19:00N 58°13' E 012°10'4 7.1
2018-Jan-11 18:30N 58°16' E 012°15'0 0.2
2018-Jan-11 18:00N 58°16' E 012°15'0 0.5
2018-Jan-11 17:30N 58°16' E 012°16'1 1.9
2018-Jan-11 17:00N 58°17' E 012°17'2 3.7
2018-Jan-11 16:30N 58°18' E 012°19'2 4.8
2018-Jan-11 16:00N 58°20' E 012°21'1 1.1
2018-Jan-11 15:30N 58°21' E 012°21'2 4.2
2018-Jan-11 15:00N 58°22' E 012°19'0 0.7
2018-Jan-11 14:30N 58°23' E 012°19'0 0.0
2018-Jan-11 13:57N 58°23' E 012°19'0 0.0
2018-Jan-11 13:30N 58°23' E 012°19'0 0.0
2018-Jan-11 13:00N 58°23' E 012°19'0 0.0
2018-Jan-11 12:30N 58°23' E 012°19'0 0.0
2018-Jan-11 12:00N 58°23' E 012°19'0 0.0
2018-Jan-11 11:30N 58°23' E 012°19'0 0.0
2018-Jan-11 11:00N 58°23' E 012°19'0 0.0
2018-Jan-11 10:30N 58°23' E 012°19'  
Track history (hours):
 
Tides and Currents Weather Stations Pressure Air Temp Water Temp Dewpoint Dewpoint Depression Visibility Wind Speed Wind Dir Waves Ship Positions

Bettina K

Last reported at 2018-Jan-21 10:16 UTC. Time now 2018-Jan-21 16:54 UTC.
Position N 55°18' E 010°48'.

Length 82 m; draft 5 m.

Type: Cargo ship. MMSI: 244730469.

Date/timePositionNaut miles runAvg speedWind from/ knotsBaromVisibWave heightAir tempDewpointWater temp
2018-Jan-21 10:16N 55°18' E 010°48'0 0.0
2018-Jan-21 09:58N 55°18' E 010°48'7 5.3
2018-Jan-21 08:34N 55°14' E 010°60'1 9.7
2018-Jan-21 08:30N 55°14' E 011°00'5 9.5
2018-Jan-21 08:00N 55°09' E 011°04'5 9.7
2018-Jan-21 07:30N 55°05' E 011°03'5 9.5
2018-Jan-21 07:00N 54°60' E 011°02'5 9.2
2018-Jan-21 06:30N 54°56' E 010°57'5 9.2
2018-Jan-21 06:00N 54°52' E 010°53'5 9.4
2018-Jan-21 05:30N 54°48' E 010°53'5 9.3
2018-Jan-21 05:00N 54°43' E 010°53'4 8.1
2018-Jan-21 04:30N 54°40' E 010°49'5 9.1
2018-Jan-21 04:00N 54°37' E 010°43'5 9.1
2018-Jan-21 03:30N 54°34' E 010°37'31 6.0
2018-Jan-20 22:17N 54°22' E 009°48'3 8.3
2018-Jan-20 21:59N 54°20' E 009°44'4 7.4
2018-Jan-20 21:30N 54°18' E 009°40'4 7.4
2018-Jan-20 21:00N 54°14' E 009°37'4 8.1
2018-Jan-20 20:30N 54°12' E 009°32'4 8.7
2018-Jan-20 20:00N 54°10' E 009°25'2 4.7
2018-Jan-20 19:30N 54°09' E 009°21'3 6.7
2018-Jan-20 19:00N 54°06' E 009°20'4 7.9
2018-Jan-20 18:30N 54°02' E 009°18'4 7.5
2018-Jan-20 18:00N 53°58' E 009°16'4 8.3
2018-Jan-20 17:30N 53°55' E 009°11'2 4.5
2018-Jan-20 17:00N 53°54' E 009°09'0 0.1
2018-Jan-20 16:30N 53°54' E 009°09'1 3.0
2018-Jan-20 16:01N 53°53' E 009°06'1 1.6
2018-Jan-20 15:30N 53°53' E 009°05'1 2.9
2018-Jan-20 15:00N 53°52' E 009°03'510.6
2018-Jan-20 14:30N 53°50' E 008°54'510.9
2018-Jan-20 14:00N 53°51' E 008°45'611.4
2018-Jan-20 13:30N 53°56' E 008°39'610.9
2018-Jan-20 13:00N 53°58' E 008°31'611.5
2018-Jan-20 12:30N 53°59' E 008°21'510.6
2018-Jan-20 12:00N 53°60' E 008°12'510.3
2018-Jan-20 11:30N 53°59' E 008°04'611.1
2018-Jan-20 10:59N 53°57' E 007°54'93 9.6
2018-Jan-20 01:18N 53°33' E 005°23'3 8.9
2018-Jan-20 00:59N 53°32' E 005°18'4 9.3
2018-Jan-20 00:30N 53°31' E 005°11'5 9.5
2018-Jan-20 00:00N 53°29' E 005°04'5 9.5
2018-Jan-19 23:30N 53°27' E 004°57'5 9.6
2018-Jan-19 23:00N 53°25' E 004°49'18 9.1
2018-Jan-19 21:00N 53°10' E 004°32'5 9.4
2018-Jan-19 20:30N 53°06' E 004°28'5 9.2
2018-Jan-19 19:58N 53°02' E 004°24'29 9.7
2018-Jan-19 17:00N 52°37' E 003°60'610.2
2018-Jan-19 16:24N 52°31' E 003°55'410.3
2018-Jan-19 15:59N 52°28' E 003°52'1110.6
2018-Jan-19 14:55N 52°20' E 003°39'22 9.0
2018-Jan-19 12:28N 52°00' E 003°24'4 8.0
2018-Jan-19 12:00N 51°56' E 003°22'4 7.8
2018-Jan-19 11:29N 51°53' E 003°21'4 7.8
2018-Jan-19 10:59N 51°49' E 003°18'18 7.3
2018-Jan-19 08:27N 51°31' E 003°26'4 9.4
2018-Jan-19 07:59N 51°28' E 003°31'4 7.8
2018-Jan-19 07:29N 51°26' E 003°36'5 9.4
2018-Jan-19 07:00N 51°24' E 003°43'612.1
2018-Jan-19 06:30N 51°21' E 003°51'612.0
2018-Jan-19 06:00N 51°25' E 003°58'4 8.9
2018-Jan-19 05:30N 51°24' E 004°05'4 8.2
2018-Jan-19 04:59N 51°24' E 004°11'4 9.2
2018-Jan-19 04:30N 51°21' E 004°16'4 8.2
2018-Jan-19 04:00N 51°17' E 004°19'1 1.1
2018-Jan-19 03:30N 51°17' E 004°20'0 0.0
2018-Jan-19 02:58N 51°17' E 004°20'1 1.6
2018-Jan-19 02:30N 51°17' E 004°21'1 1.1
2018-Jan-19 01:51N 51°17' E 004°22'0 0.0
2018-Jan-19 01:30N 51°17' E 004°22'0 0.0
2018-Jan-19 01:00N 51°17' E 004°22'0 0.0
2018-Jan-19 00:27N 51°17' E 004°22'0 0.0
2018-Jan-19 00:00N 51°17' E 004°22'0 0.0
2018-Jan-18 23:27N 51°17' E 004°22'0 0.0
2018-Jan-18 23:00N 51°17' E 004°22'0 0.0
2018-Jan-18 22:30N 51°17' E 004°22'0 0.0
2018-Jan-18 22:00N 51°17' E 004°22'0 0.0
2018-Jan-18 21:30N 51°17' E 004°22'0 0.0
2018-Jan-18 21:00N 51°17' E 004°22'0 0.0
2018-Jan-18 20:27N 51°17' E 004°22'0 0.0
2018-Jan-18 20:00N 51°17' E 004°22'0 0.0
2018-Jan-18 19:30N 51°17' E 004°22'0 0.0
2018-Jan-18 19:00N 51°17' E 004°22'0 0.0
2018-Jan-18 18:27N 51°17' E 004°22'0 0.0
2018-Jan-18 18:00N 51°17' E 004°22'0 0.0
2018-Jan-18 17:30N 51°17' E 004°22'0 0.0
2018-Jan-18 17:00N 51°17' E 004°22'0 0.0
2018-Jan-18 16:30N 51°17' E 004°22'0 0.0
2018-Jan-18 16:00N 51°17' E 004°22'0 0.0
2018-Jan-18 15:30N 51°17' E 004°22'0 0.0
2018-Jan-18 15:00N 51°17' E 004°22'0 0.0
2018-Jan-18 14:27N 51°17' E 004°22'0 0.0
2018-Jan-18 13:57N 51°17' E 004°22'0 0.0
2018-Jan-18 13:27N 51°17' E 004°22'0 0.0
2018-Jan-18 13:00N 51°17' E 004°22'0 0.0
2018-Jan-18 12:30N 51°17' E 004°22'0 0.0
2018-Jan-18 12:00N 51°17' E 004°22'0 0.0
2018-Jan-18 11:27N 51°17' E 004°22'0 0.0
2018-Jan-18 11:00N 51°17' E 004°22'0 0.0
2018-Jan-18 10:24N 51°17' E 004°22'0 0.0
2018-Jan-18 10:00N 51°17' E 004°22'0 0.0
2018-Jan-18 09:30N 51°17' E 004°22'0 0.0
2018-Jan-18 09:00N 51°17' E 004°22'0 0.0
2018-Jan-18 08:30N 51°17' E 004°22'0 0.0
2018-Jan-18 08:00N 51°17' E 004°22'0 0.0
2018-Jan-18 07:30N 51°17' E 004°22'0 0.0
2018-Jan-18 07:00N 51°17' E 004°22'0 0.0
2018-Jan-18 06:30N 51°17' E 004°22'0 0.0
2018-Jan-18 06:00N 51°17' E 004°22'0 0.0
2018-Jan-18 05:30N 51°17' E 004°22'0 0.0
2018-Jan-18 05:00N 51°17' E 004°22'0 0.0
2018-Jan-18 04:30N 51°17' E 004°22'0 0.0
2018-Jan-18 04:00N 51°17' E 004°22'0 0.0
2018-Jan-18 03:30N 51°17' E 004°22'0 0.0
2018-Jan-18 03:00N 51°17' E 004°22'0 0.0
2018-Jan-18 02:27N 51°17' E 004°22'0 0.0
2018-Jan-18 02:00N 51°17' E 004°22'0 0.0
2018-Jan-18 01:30N 51°17' E 004°22'0 0.0
2018-Jan-18 00:57N 51°17' E 004°22'0 0.0
2018-Jan-18 00:00N 51°17' E 004°22'0 0.0
2018-Jan-17 23:57N 51°17' E 004°22'  
2018-Jan-12 08:35N 57°33' E 009°36'1 9.7
2018-Jan-12 08:27N 57°34' E 009°38'5 9.4
2018-Jan-12 07:54N 57°36' E 009°46'5 9.3
2018-Jan-12 07:24N 57°38' E 009°54'4 9.2
2018-Jan-12 06:59N 57°40' E 010°01'4 9.2
2018-Jan-12 06:30N 57°41' E 010°08'5 9.5
2018-Jan-12 06:00N 57°43' E 010°16'5 9.8
2018-Jan-12 05:30N 57°45' E 010°25'510.3
2018-Jan-12 04:59N 57°47' E 010°34'510.1
2018-Jan-12 04:30N 57°49' E 010°43'5 9.9
2018-Jan-12 04:00N 57°47' E 010°51'510.1
2018-Jan-12 03:30N 57°45' E 010°60'5 9.7
2018-Jan-12 03:00N 57°43' E 011°08'510.0
2018-Jan-12 02:30N 57°41' E 011°17'510.2
2018-Jan-12 02:00N 57°39' E 011°26'510.1
2018-Jan-12 01:30N 57°37' E 011°34'4 8.3
2018-Jan-12 01:00N 57°38' E 011°42'4 8.7
2018-Jan-12 00:30N 57°41' E 011°49'4 7.7
2018-Jan-12 00:00N 57°42' E 011°55'3 5.9
2018-Jan-11 23:30N 57°44' E 011°60'2 3.1
2018-Jan-11 23:00N 57°45' E 011°60'3 6.0
2018-Jan-11 22:30N 57°48' E 012°01'4 7.0
2018-Jan-11 22:00N 57°52' E 012°01'5 9.6
2018-Jan-11 21:30N 57°56' E 012°04'4 8.1
2018-Jan-11 21:00N 58°00' E 012°08'510.1
2018-Jan-11 20:29N 58°05' E 012°09'3 6.4
2018-Jan-11 20:00N 58°08' E 012°07'1 1.9
2018-Jan-11 19:30N 58°09' E 012°08'4 9.0
2018-Jan-11 19:00N 58°13' E 012°10'4 7.1
2018-Jan-11 18:30N 58°16' E 012°15'0 0.2
2018-Jan-11 18:00N 58°16' E 012°15'0 0.5
2018-Jan-11 17:30N 58°16' E 012°16'1 1.9
2018-Jan-11 17:00N 58°17' E 012°17'2 3.7
2018-Jan-11 16:30N 58°18' E 012°19'2 4.8
2018-Jan-11 16:00N 58°20' E 012°21'1 1.1
2018-Jan-11 15:30N 58°21' E 012°21'2 4.2
2018-Jan-11 15:00N 58°22' E 012°19'0 0.7
2018-Jan-11 14:30N 58°23' E 012°19'0 0.0
2018-Jan-11 13:57N 58°23' E 012°19'0 0.0
2018-Jan-11 13:30N 58°23' E 012°19'0 0.0
2018-Jan-11 13:00N 58°23' E 012°19'0 0.0
2018-Jan-11 12:30N 58°23' E 012°19'0 0.0
2018-Jan-11 12:00N 58°23' E 012°19'0 0.0
2018-Jan-11 11:30N 58°23' E 012°19'0 0.0
2018-Jan-11 11:00N 58°23' E 012°19'0 0.0
2018-Jan-11 10:30N 58°23' E 012°19'  

Dump ship's entire track history